sensor_id;sensor_type;location;lat;lon;timestamp;temperature;humidity
2721;DHT22;1368;49.484;11.112;2023-02-21T00:01:41;6.90;99.90
2721;DHT22;1368;49.484;11.112;2023-02-21T00:04:25;6.80;99.90
2721;DHT22;1368;49.484;11.112;2023-02-21T00:07:09;6.80;99.90
2721;DHT22;1368;49.484;11.112;2023-02-21T00:09:53;6.80;99.90
2721;DHT22;1368;49.484;11.112;2023-02-21T00:12:37;6.70;99.90
2721;DHT22;1368;49.484;11.112;2023-02-21T00:15:21;6.70;99.90
2721;DHT22;1368;49.484;11.112;2023-02-21T00:18:06;6.20;99.90
2721;DHT22;1368;49.484;11.112;2023-02-21T00:20:50;6.20;99.90
2721;DHT22;1368;49.484;11.112;2023-02-21T00:23:35;6.30;99.90
2721;DHT22;1368;49.484;11.112;2023-02-21T00:26:20;6.40;99.90
2721;DHT22;1368;49.484;11.112;2023-02-21T00:29:06;6.40;99.90
2721;DHT22;1368;49.484;11.112;2023-02-21T00:31:50;6.50;99.90
2721;DHT22;1368;49.484;11.112;2023-02-21T00:34:34;6.50;99.90
2721;DHT22;1368;49.484;11.112;2023-02-21T00:37:18;6.40;99.90
2721;DHT22;1368;49.484;11.112;2023-02-21T00:40:02;6.40;99.90
2721;DHT22;1368;49.484;11.112;2023-02-21T00:42:46;6.40;99.90
2721;DHT22;1368;49.484;11.112;2023-02-21T00:45:31;6.30;99.90
2721;DHT22;1368;49.484;11.112;2023-02-21T00:48:22;6.20;99.90
2721;DHT22;1368;49.484;11.112;2023-02-21T00:51:06;6.10;99.90
2721;DHT22;1368;49.484;11.112;2023-02-21T00:53:51;6.00;99.90
2721;DHT22;1368;49.484;11.112;2023-02-21T00:56:35;6.00;99.90
2721;DHT22;1368;49.484;11.112;2023-02-21T00:59:19;5.90;99.90
2721;DHT22;1368;49.484;11.112;2023-02-21T01:02:03;5.90;99.90
2721;DHT22;1368;49.484;11.112;2023-02-21T01:04:48;5.90;99.90
2721;DHT22;1368;49.484;11.112;2023-02-21T01:07:32;5.80;99.90
2721;DHT22;1368;49.484;11.112;2023-02-21T01:10:16;5.60;99.90
2721;DHT22;1368;49.484;11.112;2023-02-21T01:13:01;5.40;99.90
2721;DHT22;1368;49.484;11.112;2023-02-21T01:15:45;5.40;99.90
2721;DHT22;1368;49.484;11.112;2023-02-21T01:18:29;5.30;99.90
2721;DHT22;1368;49.484;11.112;2023-02-21T01:21:15;5.00;99.90
2721;DHT22;1368;49.484;11.112;2023-02-21T01:23:59;4.90;99.90
2721;DHT22;1368;49.484;11.112;2023-02-21T01:26:43;5.00;99.90
2721;DHT22;1368;49.484;11.112;2023-02-21T01:29:28;5.10;99.90
2721;DHT22;1368;49.484;11.112;2023-02-21T01:32:12;5.00;99.90
2721;DHT22;1368;49.484;11.112;2023-02-21T01:34:56;4.90;99.90
2721;DHT22;1368;49.484;11.112;2023-02-21T01:37:41;4.90;99.90
2721;DHT22;1368;49.484;11.112;2023-02-21T01:40:25;5.10;99.90
2721;DHT22;1368;49.484;11.112;2023-02-21T01:43:20;5.20;99.90
2721;DHT22;1368;49.484;11.112;2023-02-21T01:46:07;5.20;99.90
2721;DHT22;1368;49.484;11.112;2023-02-21T01:48:53;5.20;99.90
2721;DHT22;1368;49.484;11.112;2023-02-21T01:51:40;5.20;99.90
2721;DHT22;1368;49.484;11.112;2023-02-21T01:54:29;5.20;99.90
2721;DHT22;1368;49.484;11.112;2023-02-21T01:57:14;5.10;99.90
2721;DHT22;1368;49.484;11.112;2023-02-21T02:00:00;4.90;99.90
2721;DHT22;1368;49.484;11.112;2023-02-21T02:02:56;4.90;99.90
2721;DHT22;1368;49.484;11.112;2023-02-21T02:05:43;4.90;99.90
2721;DHT22;1368;49.484;11.112;2023-02-21T02:08:30;4.90;99.90
2721;DHT22;1368;49.484;11.112;2023-02-21T02:23:33;4.80;99.90
2721;DHT22;1368;49.484;11.112;2023-02-21T02:34:36;4.30;99.90
2721;DHT22;1368;49.484;11.112;2023-02-21T02:40:06;4.30;99.90
2721;DHT22;1368;49.484;11.112;2023-02-21T02:42:43;4.20;99.90
2721;DHT22;1368;49.484;11.112;2023-02-21T02:48:29;4.00;99.90
2721;DHT22;1368;49.484;11.112;2023-02-21T02:51:01;3.80;99.90
2721;DHT22;1368;49.484;11.112;2023-02-21T02:53:29;3.90;99.90
2721;DHT22;1368;49.484;11.112;2023-02-21T02:56:00;3.90;99.90
2721;DHT22;1368;49.484;11.112;2023-02-21T02:58:29;3.80;99.90
2721;DHT22;1368;49.484;11.112;2023-02-21T03:12:02;4.10;99.90
2721;DHT22;1368;49.484;11.112;2023-02-21T03:14:49;4.10;99.90
2721;DHT22;1368;49.484;11.112;2023-02-21T03:17:17;4.10;99.90
2721;DHT22;1368;49.484;11.112;2023-02-21T03:19:48;4.10;99.90
2721;DHT22;1368;49.484;11.112;2023-02-21T03:22:19;4.10;99.90
2721;DHT22;1368;49.484;11.112;2023-02-21T03:24:47;4.20;99.90
2721;DHT22;1368;49.484;11.112;2023-02-21T03:27:14;4.20;99.90
2721;DHT22;1368;49.484;11.112;2023-02-21T03:29:42;4.10;99.90
2721;DHT22;1368;49.484;11.112;2023-02-21T03:32:29;4.10;99.90
2721;DHT22;1368;49.484;11.112;2023-02-21T03:34:56;4.20;99.90
2721;DHT22;1368;49.484;11.112;2023-02-21T03:37:40;4.80;99.90
2721;DHT22;1368;49.484;11.112;2023-02-21T03:40:16;4.70;99.90
2721;DHT22;1368;49.484;11.112;2023-02-21T03:42:41;5.00;99.90
2721;DHT22;1368;49.484;11.112;2023-02-21T03:45:07;4.90;99.90
2721;DHT22;1368;49.484;11.112;2023-02-21T03:47:33;4.90;99.90
2721;DHT22;1368;49.484;11.112;2023-02-21T03:49:58;4.90;99.90
2721;DHT22;1368;49.484;11.112;2023-02-21T03:52:24;5.10;99.90
2721;DHT22;1368;49.484;11.112;2023-02-21T03:54:49;5.40;99.90
2721;DHT22;1368;49.484;11.112;2023-02-21T03:57:15;5.50;99.90
2721;DHT22;1368;49.484;11.112;2023-02-21T03:59:41;5.60;99.90
2721;DHT22;1368;49.484;11.112;2023-02-21T04:02:06;5.80;99.90
2721;DHT22;1368;49.484;11.112;2023-02-21T04:04:33;5.90;99.90
2721;DHT22;1368;49.484;11.112;2023-02-21T04:06:58;6.10;99.90
2721;DHT22;1368;49.484;11.112;2023-02-21T04:09:24;6.20;99.90
2721;DHT22;1368;49.484;11.112;2023-02-21T04:11:51;6.10;99.90
2721;DHT22;1368;49.484;11.112;2023-02-21T04:14:16;5.90;99.90
2721;DHT22;1368;49.484;11.112;2023-02-21T04:16:42;5.60;99.90
2721;DHT22;1368;49.484;11.112;2023-02-21T04:19:08;5.50;99.90
2721;DHT22;1368;49.484;11.112;2023-02-21T04:21:33;5.80;99.90
2721;DHT22;1368;49.484;11.112;2023-02-21T04:23:59;6.00;99.90
2721;DHT22;1368;49.484;11.112;2023-02-21T04:26:24;6.20;99.90
2721;DHT22;1368;49.484;11.112;2023-02-21T04:28:50;6.30;99.90
2721;DHT22;1368;49.484;11.112;2023-02-21T04:31:16;6.50;99.90
2721;DHT22;1368;49.484;11.112;2023-02-21T04:33:43;6.70;99.90
2721;DHT22;1368;49.484;11.112;2023-02-21T04:36:09;6.80;99.90
2721;DHT22;1368;49.484;11.112;2023-02-21T04:38:34;6.70;99.90
2721;DHT22;1368;49.484;11.112;2023-02-21T04:41:02;6.50;99.90
2721;DHT22;1368;49.484;11.112;2023-02-21T04:43:27;6.20;99.90
2721;DHT22;1368;49.484;11.112;2023-02-21T04:45:53;6.00;99.90
2721;DHT22;1368;49.484;11.112;2023-02-21T04:48:19;6.00;99.90
2721;DHT22;1368;49.484;11.112;2023-02-21T04:50:45;6.00;99.90
2721;DHT22;1368;49.484;11.112;2023-02-21T04:53:10;6.20;99.90
2721;DHT22;1368;49.484;11.112;2023-02-21T04:55:36;6.30;99.90
2721;DHT22;1368;49.484;11.112;2023-02-21T04:58:01;6.10;99.90
2721;DHT22;1368;49.484;11.112;2023-02-21T05:00:27;6.40;99.90
2721;DHT22;1368;49.484;11.112;2023-02-21T05:02:52;6.60;99.90
2721;DHT22;1368;49.484;11.112;2023-02-21T05:05:18;6.80;99.90
2721;DHT22;1368;49.484;11.112;2023-02-21T05:07:43;7.00;99.90
2721;DHT22;1368;49.484;11.112;2023-02-21T05:10:10;7.10;99.90
2721;DHT22;1368;49.484;11.112;2023-02-21T05:12:36;7.20;99.90
2721;DHT22;1368;49.484;11.112;2023-02-21T05:15:04;7.20;99.90
2721;DHT22;1368;49.484;11.112;2023-02-21T05:17:30;7.30;99.90
2721;DHT22;1368;49.484;11.112;2023-02-21T05:19:55;7.10;99.90
2721;DHT22;1368;49.484;11.112;2023-02-21T05:22:21;7.10;99.90
2721;DHT22;1368;49.484;11.112;2023-02-21T05:24:47;7.30;99.90
2721;DHT22;1368;49.484;11.112;2023-02-21T05:27:14;7.50;99.90
2721;DHT22;1368;49.484;11.112;2023-02-21T05:29:41;7.50;99.90
2721;DHT22;1368;49.484;11.112;2023-02-21T05:32:07;7.60;99.90
2721;DHT22;1368;49.484;11.112;2023-02-21T05:34:32;7.60;99.90
2721;DHT22;1368;49.484;11.112;2023-02-21T05:36:58;7.70;99.90
2721;DHT22;1368;49.484;11.112;2023-02-21T05:39:24;7.80;99.90
2721;DHT22;1368;49.484;11.112;2023-02-21T05:41:50;7.90;99.90
2721;DHT22;1368;49.484;11.112;2023-02-21T05:44:16;8.00;99.90
2721;DHT22;1368;49.484;11.112;2023-02-21T05:46:42;8.00;99.90
2721;DHT22;1368;49.484;11.112;2023-02-21T05:49:10;8.10;99.90
2721;DHT22;1368;49.484;11.112;2023-02-21T05:51:38;8.20;99.90
2721;DHT22;1368;49.484;11.112;2023-02-21T05:54:06;8.20;99.90
2721;DHT22;1368;49.484;11.112;2023-02-21T05:56:39;8.20;99.90
2721;DHT22;1368;49.484;11.112;2023-02-21T05:59:05;8.20;99.90
2721;DHT22;1368;49.484;11.112;2023-02-21T06:01:31;8.30;99.90
2721;DHT22;1368;49.484;11.112;2023-02-21T06:03:56;8.30;99.90
2721;DHT22;1368;49.484;11.112;2023-02-21T06:06:22;8.30;99.90
2721;DHT22;1368;49.484;11.112;2023-02-21T06:08:48;8.30;99.90
2721;DHT22;1368;49.484;11.112;2023-02-21T06:11:20;8.30;99.90
2721;DHT22;1368;49.484;11.112;2023-02-21T06:13:47;8.30;99.90
2721;DHT22;1368;49.484;11.112;2023-02-21T06:16:14;8.30;99.90
2721;DHT22;1368;49.484;11.112;2023-02-21T06:18:39;8.40;99.90
2721;DHT22;1368;49.484;11.112;2023-02-21T06:21:05;8.50;99.90
2721;DHT22;1368;49.484;11.112;2023-02-21T06:23:30;8.60;99.90
2721;DHT22;1368;49.484;11.112;2023-02-21T06:25:56;8.70;99.90
2721;DHT22;1368;49.484;11.112;2023-02-21T06:28:27;8.70;99.90
2721;DHT22;1368;49.484;11.112;2023-02-21T06:30:52;8.70;99.90
2721;DHT22;1368;49.484;11.112;2023-02-21T06:33:18;8.70;99.90
2721;DHT22;1368;49.484;11.112;2023-02-21T06:35:43;8.70;99.90
2721;DHT22;1368;49.484;11.112;2023-02-21T06:38:09;9.00;99.90
2721;DHT22;1368;49.484;11.112;2023-02-21T06:40:34;8.90;99.90
2721;DHT22;1368;49.484;11.112;2023-02-21T06:43:00;8.90;99.90
2721;DHT22;1368;49.484;11.112;2023-02-21T06:45:25;8.90;99.90
2721;DHT22;1368;49.484;11.112;2023-02-21T06:47:51;8.90;99.90
2721;DHT22;1368;49.484;11.112;2023-02-21T06:50:16;9.00;99.90
2721;DHT22;1368;49.484;11.112;2023-02-21T06:52:42;9.20;99.90
2721;DHT22;1368;49.484;11.112;2023-02-21T06:55:07;9.20;99.90
2721;DHT22;1368;49.484;11.112;2023-02-21T06:57:33;9.30;99.90
2721;DHT22;1368;49.484;11.112;2023-02-21T06:59:58;9.40;99.90
2721;DHT22;1368;49.484;11.112;2023-02-21T07:02:24;9.50;99.90
2721;DHT22;1368;49.484;11.112;2023-02-21T07:04:50;9.50;99.90
2721;DHT22;1368;49.484;11.112;2023-02-21T07:07:16;9.50;99.90
2721;DHT22;1368;49.484;11.112;2023-02-21T07:09:41;9.50;99.90
2721;DHT22;1368;49.484;11.112;2023-02-21T07:12:07;9.00;99.90
2721;DHT22;1368;49.484;11.112;2023-02-21T07:14:35;9.00;99.90
2721;DHT22;1368;49.484;11.112;2023-02-21T07:17:01;9.20;99.90
2721;DHT22;1368;49.484;11.112;2023-02-21T07:19:26;9.60;99.90
2721;DHT22;1368;49.484;11.112;2023-02-21T07:21:52;9.80;99.90
2721;DHT22;1368;49.484;11.112;2023-02-21T07:24:17;10.10;99.90
2721;DHT22;1368;49.484;11.112;2023-02-21T07:26:43;10.40;99.90
2721;DHT22;1368;49.484;11.112;2023-02-21T07:29:08;10.80;99.90
2721;DHT22;1368;49.484;11.112;2023-02-21T07:31:34;11.30;99.90
2721;DHT22;1368;49.484;11.112;2023-02-21T07:33:59;11.60;99.90
2721;DHT22;1368;49.484;11.112;2023-02-21T07:36:25;12.00;99.90
2721;DHT22;1368;49.484;11.112;2023-02-21T07:38:51;12.00;99.90
2721;DHT22;1368;49.484;11.112;2023-02-21T07:41:17;12.20;99.90
2721;DHT22;1368;49.484;11.112;2023-02-21T07:43:42;12.50;99.90
2721;DHT22;1368;49.484;11.112;2023-02-21T07:46:09;12.70;99.90
2721;DHT22;1368;49.484;11.112;2023-02-21T07:48:35;12.80;99.90
2721;DHT22;1368;49.484;11.112;2023-02-21T07:51:01;12.90;99.90
2721;DHT22;1368;49.484;11.112;2023-02-21T07:53:26;13.10;99.90
2721;DHT22;1368;49.484;11.112;2023-02-21T07:55:52;13.30;99.90
2721;DHT22;1368;49.484;11.112;2023-02-21T07:58:18;13.90;99.90
2721;DHT22;1368;49.484;11.112;2023-02-21T08:00:43;13.80;99.90
2721;DHT22;1368;49.484;11.112;2023-02-21T08:03:11;14.20;99.90
2721;DHT22;1368;49.484;11.112;2023-02-21T08:05:38;14.30;99.90
2721;DHT22;1368;49.484;11.112;2023-02-21T08:08:06;14.10;99.90
2721;DHT22;1368;49.484;11.112;2023-02-21T08:10:32;13.80;99.90
2721;DHT22;1368;49.484;11.112;2023-02-21T08:12:58;14.10;99.90
2721;DHT22;1368;49.484;11.112;2023-02-21T08:15:23;14.90;99.90
2721;DHT22;1368;49.484;11.112;2023-02-21T08:17:49;15.00;99.90
2721;DHT22;1368;49.484;11.112;2023-02-21T08:20:15;15.60;99.90
2721;DHT22;1368;49.484;11.112;2023-02-21T08:22:41;16.40;99.90
2721;DHT22;1368;49.484;11.112;2023-02-21T08:25:09;17.10;99.90
2721;DHT22;1368;49.484;11.112;2023-02-21T08:27:41;17.30;99.90
2721;DHT22;1368;49.484;11.112;2023-02-21T08:30:09;17.60;99.90
2721;DHT22;1368;49.484;11.112;2023-02-21T08:32:35;18.60;98.30
2721;DHT22;1368;49.484;11.112;2023-02-21T08:35:01;18.30;98.10
2721;DHT22;1368;49.484;11.112;2023-02-21T08:37:31;18.10;98.80
2721;DHT22;1368;49.484;11.112;2023-02-21T08:40:00;17.80;98.50
2721;DHT22;1368;49.484;11.112;2023-02-21T08:42:26;17.50;98.60
2721;DHT22;1368;49.484;11.112;2023-02-21T08:44:52;17.30;99.40
2721;DHT22;1368;49.484;11.112;2023-02-21T08:47:17;17.30;99.00
2721;DHT22;1368;49.484;11.112;2023-02-21T08:49:47;17.50;98.90
2721;DHT22;1368;49.484;11.112;2023-02-21T08:52:17;17.30;99.20
2721;DHT22;1368;49.484;11.112;2023-02-21T08:54:43;16.70;99.40
2721;DHT22;1368;49.484;11.112;2023-02-21T08:57:09;16.50;99.90
2721;DHT22;1368;49.484;11.112;2023-02-21T08:59:38;16.60;99.90
2721;DHT22;1368;49.484;11.112;2023-02-21T09:02:13;16.60;99.90
2721;DHT22;1368;49.484;11.112;2023-02-21T09:04:40;16.60;99.90
2721;DHT22;1368;49.484;11.112;2023-02-21T09:07:05;16.70;99.90
2721;DHT22;1368;49.484;11.112;2023-02-21T09:09:31;16.60;99.90
2721;DHT22;1368;49.484;11.112;2023-02-21T09:11:57;16.20;99.90
2721;DHT22;1368;49.484;11.112;2023-02-21T09:14:23;15.90;99.90
2721;DHT22;1368;49.484;11.112;2023-02-21T09:16:48;15.70;99.90
2721;DHT22;1368;49.484;11.112;2023-02-21T09:19:14;15.80;99.90
2721;DHT22;1368;49.484;11.112;2023-02-21T09:21:44;15.70;99.90
2721;DHT22;1368;49.484;11.112;2023-02-21T09:24:10;15.90;99.90
2721;DHT22;1368;49.484;11.112;2023-02-21T09:26:36;15.60;99.90
2721;DHT22;1368;49.484;11.112;2023-02-21T09:29:01;15.70;99.90
2721;DHT22;1368;49.484;11.112;2023-02-21T09:31:27;16.20;99.90
2721;DHT22;1368;49.484;11.112;2023-02-21T09:33:52;15.30;99.90
2721;DHT22;1368;49.484;11.112;2023-02-21T09:36:18;15.10;99.90
2721;DHT22;1368;49.484;11.112;2023-02-21T09:38:49;15.10;99.90
2721;DHT22;1368;49.484;11.112;2023-02-21T09:41:15;15.60;99.90
2721;DHT22;1368;49.484;11.112;2023-02-21T09:43:47;14.90;99.90
2721;DHT22;1368;49.484;11.112;2023-02-21T09:46:28;15.30;99.90
2721;DHT22;1368;49.484;11.112;2023-02-21T09:48:56;14.60;99.90
2721;DHT22;1368;49.484;11.112;2023-02-21T09:51:23;14.50;99.90
2721;DHT22;1368;49.484;11.112;2023-02-21T09:53:52;14.60;99.90
2721;DHT22;1368;49.484;11.112;2023-02-21T09:56:33;14.60;99.90
2721;DHT22;1368;49.484;11.112;2023-02-21T09:59:00;14.50;99.90
2721;DHT22;1368;49.484;11.112;2023-02-21T10:09:55;14.50;99.90
2721;DHT22;1368;49.484;11.112;2023-02-21T10:12:45;14.30;99.90
2721;DHT22;1368;49.484;11.112;2023-02-21T10:18:01;15.00;99.90
2721;DHT22;1368;49.484;11.112;2023-02-21T10:23:20;15.10;99.90
2721;DHT22;1368;49.484;11.112;2023-02-21T10:25:46;15.20;99.90
2721;DHT22;1368;49.484;11.112;2023-02-21T10:28:21;15.00;99.90
2721;DHT22;1368;49.484;11.112;2023-02-21T10:30:48;15.70;99.90
2721;DHT22;1368;49.484;11.112;2023-02-21T10:33:15;15.50;99.90
2721;DHT22;1368;49.484;11.112;2023-02-21T10:35:41;15.70;99.90
2721;DHT22;1368;49.484;11.112;2023-02-21T10:38:13;15.10;99.90
2721;DHT22;1368;49.484;11.112;2023-02-21T10:40:41;15.00;99.90
2721;DHT22;1368;49.484;11.112;2023-02-21T10:43:30;14.90;99.90
2721;DHT22;1368;49.484;11.112;2023-02-21T10:45:58;15.10;99.90
2721;DHT22;1368;49.484;11.112;2023-02-21T10:48:31;15.60;99.90
2721;DHT22;1368;49.484;11.112;2023-02-21T10:51:10;15.80;99.90
2721;DHT22;1368;49.484;11.112;2023-02-21T10:53:43;16.20;99.90
2721;DHT22;1368;49.484;11.112;2023-02-21T10:58:52;16.30;99.90
2721;DHT22;1368;49.484;11.112;2023-02-21T11:04:22;17.30;99.90
2721;DHT22;1368;49.484;11.112;2023-02-21T11:06:51;17.00;99.90
2721;DHT22;1368;49.484;11.112;2023-02-21T11:09:31;17.20;99.90
2721;DHT22;1368;49.484;11.112;2023-02-21T11:12:15;16.60;99.90
2721;DHT22;1368;49.484;11.112;2023-02-21T11:19:56;16.80;99.90
2721;DHT22;1368;49.484;11.112;2023-02-21T11:22:25;16.70;99.90
2721;DHT22;1368;49.484;11.112;2023-02-21T11:31:03;17.00;99.90
2721;DHT22;1368;49.484;11.112;2023-02-21T11:33:29;17.30;99.90
2721;DHT22;1368;49.484;11.112;2023-02-21T11:36:12;17.70;99.90
2721;DHT22;1368;49.484;11.112;2023-02-21T11:38:43;17.80;99.90
2721;DHT22;1368;49.484;11.112;2023-02-21T11:41:26;18.00;99.90
2721;DHT22;1368;49.484;11.112;2023-02-21T11:43:53;18.20;99.90
2721;DHT22;1368;49.484;11.112;2023-02-21T11:46:45;18.30;99.90
2721;DHT22;1368;49.484;11.112;2023-02-21T11:49:19;17.70;99.90
2721;DHT22;1368;49.484;11.112;2023-02-21T11:54:13;17.60;99.90
2721;DHT22;1368;49.484;11.112;2023-02-21T11:57:06;17.70;99.90
2721;DHT22;1368;49.484;11.112;2023-02-21T12:05:52;16.20;99.90
2721;DHT22;1368;49.484;11.112;2023-02-21T12:11:52;16.40;99.90
2721;DHT22;1368;49.484;11.112;2023-02-21T12:17:16;16.10;99.90
2721;DHT22;1368;49.484;11.112;2023-02-21T12:33:58;16.30;99.90
2721;DHT22;1368;49.484;11.112;2023-02-21T12:36:44;16.40;99.90
2721;DHT22;1368;49.484;11.112;2023-02-21T12:45:02;16.70;99.90
2721;DHT22;1368;49.484;11.112;2023-02-21T12:47:34;16.40;99.90
2721;DHT22;1368;49.484;11.112;2023-02-21T12:50:31;16.40;99.90
2721;DHT22;1368;49.484;11.112;2023-02-21T12:53:18;16.50;99.90
2721;DHT22;1368;49.484;11.112;2023-02-21T12:55:51;16.50;99.90
2721;DHT22;1368;49.484;11.112;2023-02-21T12:58:29;15.80;99.90
2721;DHT22;1368;49.484;11.112;2023-02-21T13:03:51;16.50;99.90
2721;DHT22;1368;49.484;11.112;2023-02-21T13:06:44;17.00;99.90
2721;DHT22;1368;49.484;11.112;2023-02-21T13:09:37;17.00;99.90
2721;DHT22;1368;49.484;11.112;2023-02-21T13:14:53;17.30;99.90
2721;DHT22;1368;49.484;11.112;2023-02-21T13:17:20;16.80;99.90
2721;DHT22;1368;49.484;11.112;2023-02-21T13:19:55;17.10;99.90
2721;DHT22;1368;49.484;11.112;2023-02-21T13:28:20;16.90;99.90
2721;DHT22;1368;49.484;11.112;2023-02-21T13:30:51;16.70;99.90
2721;DHT22;1368;49.484;11.112;2023-02-21T13:33:28;16.50;99.90
2721;DHT22;1368;49.484;11.112;2023-02-21T13:35:57;16.40;99.90
2721;DHT22;1368;49.484;11.112;2023-02-21T13:38:26;16.60;99.90
2721;DHT22;1368;49.484;11.112;2023-02-21T13:41:07;17.10;99.90
2721;DHT22;1368;49.484;11.112;2023-02-21T13:43:46;17.40;99.90
2721;DHT22;1368;49.484;11.112;2023-02-21T13:47:06;17.40;99.90
2721;DHT22;1368;49.484;11.112;2023-02-21T13:57:38;17.60;99.90
2721;DHT22;1368;49.484;11.112;2023-02-21T14:03:00;17.40;99.90
2721;DHT22;1368;49.484;11.112;2023-02-21T14:08:39;17.60;99.90
2721;DHT22;1368;49.484;11.112;2023-02-21T14:13:53;17.20;99.90
2721;DHT22;1368;49.484;11.112;2023-02-21T14:16:57;17.50;99.90
2721;DHT22;1368;49.484;11.112;2023-02-21T14:19:26;17.40;99.90
2721;DHT22;1368;49.484;11.112;2023-02-21T14:22:03;17.60;99.90
2721;DHT22;1368;49.484;11.112;2023-02-21T14:24:35;17.20;99.90
2721;DHT22;1368;49.484;11.112;2023-02-21T14:29:37;17.40;99.90
2721;DHT22;1368;49.484;11.112;2023-02-21T14:37:10;17.40;99.90
2721;DHT22;1368;49.484;11.112;2023-02-21T14:39:40;16.90;99.90
2721;DHT22;1368;49.484;11.112;2023-02-21T15:07:31;16.60;99.90
2721;DHT22;1368;49.484;11.112;2023-02-21T15:10:17;16.90;99.90
2721;DHT22;1368;49.484;11.112;2023-02-21T15:12:51;17.00;99.90
2721;DHT22;1368;49.484;11.112;2023-02-21T15:15:30;16.80;99.90
2721;DHT22;1368;49.484;11.112;2023-02-21T15:18:26;16.10;99.90
2721;DHT22;1368;49.484;11.112;2023-02-21T15:23:32;16.20;99.90
2721;DHT22;1368;49.484;11.112;2023-02-21T15:26:07;16.30;99.90
2721;DHT22;1368;49.484;11.112;2023-02-21T15:28:39;16.40;99.90
2721;DHT22;1368;49.484;11.112;2023-02-21T15:31:07;16.10;99.90
2721;DHT22;1368;49.484;11.112;2023-02-21T15:33:35;16.20;99.90
2721;DHT22;1368;49.484;11.112;2023-02-21T15:36:21;16.50;99.90
2721;DHT22;1368;49.484;11.112;2023-02-21T15:39:07;16.70;99.90
2721;DHT22;1368;49.484;11.112;2023-02-21T15:41:45;16.70;99.90
2721;DHT22;1368;49.484;11.112;2023-02-21T15:46:51;16.80;99.90
2721;DHT22;1368;49.484;11.112;2023-02-21T15:49:35;17.00;99.90
2721;DHT22;1368;49.484;11.112;2023-02-21T15:52:02;16.80;99.90
2721;DHT22;1368;49.484;11.112;2023-02-21T15:54:31;16.60;99.90
2721;DHT22;1368;49.484;11.112;2023-02-21T15:59:38;16.50;99.90
2721;DHT22;1368;49.484;11.112;2023-02-21T16:04:37;16.40;99.90
2721;DHT22;1368;49.484;11.112;2023-02-21T16:07:04;16.10;99.90
2721;DHT22;1368;49.484;11.112;2023-02-21T16:09:32;16.40;99.90
2721;DHT22;1368;49.484;11.112;2023-02-21T16:12:25;15.90;99.90
2721;DHT22;1368;49.484;11.112;2023-02-21T16:15:01;15.80;99.90
2721;DHT22;1368;49.484;11.112;2023-02-21T16:17:32;16.00;99.90
2721;DHT22;1368;49.484;11.112;2023-02-21T16:20:23;15.40;99.90
2721;DHT22;1368;49.484;11.112;2023-02-21T16:23:10;15.50;99.90
2721;DHT22;1368;49.484;11.112;2023-02-21T16:25:54;15.70;99.90
2721;DHT22;1368;49.484;11.112;2023-02-21T16:28:20;15.60;99.90
2721;DHT22;1368;49.484;11.112;2023-02-21T16:30:46;15.20;99.90
2721;DHT22;1368;49.484;11.112;2023-02-21T16:33:12;15.00;99.90
2721;DHT22;1368;49.484;11.112;2023-02-21T16:35:38;14.60;99.90
2721;DHT22;1368;49.484;11.112;2023-02-21T16:38:04;14.80;99.90
2721;DHT22;1368;49.484;11.112;2023-02-21T16:40:34;14.40;99.90
2721;DHT22;1368;49.484;11.112;2023-02-21T16:43:02;14.40;99.90
2721;DHT22;1368;49.484;11.112;2023-02-21T16:45:29;14.50;99.90
2721;DHT22;1368;49.484;11.112;2023-02-21T16:47:57;14.80;99.90
2721;DHT22;1368;49.484;11.112;2023-02-21T16:52:53;14.60;99.90
2721;DHT22;1368;49.484;11.112;2023-02-21T16:55:19;14.70;99.90
2721;DHT22;1368;49.484;11.112;2023-02-21T16:57:47;14.40;99.90
2721;DHT22;1368;49.484;11.112;2023-02-21T17:00:14;14.30;99.90
2721;DHT22;1368;49.484;11.112;2023-02-21T17:02:40;14.20;99.90
2721;DHT22;1368;49.484;11.112;2023-02-21T17:05:05;14.60;99.90
2721;DHT22;1368;49.484;11.112;2023-02-21T17:07:31;14.20;99.90
2721;DHT22;1368;49.484;11.112;2023-02-21T17:09:57;14.10;99.90
2721;DHT22;1368;49.484;11.112;2023-02-21T17:12:22;14.00;99.90
2721;DHT22;1368;49.484;11.112;2023-02-21T17:14:48;14.40;99.90
2721;DHT22;1368;49.484;11.112;2023-02-21T17:17:13;13.80;99.90
2721;DHT22;1368;49.484;11.112;2023-02-21T17:19:39;13.80;99.90
2721;DHT22;1368;49.484;11.112;2023-02-21T17:22:05;13.80;99.90
2721;DHT22;1368;49.484;11.112;2023-02-21T17:24:30;13.60;99.90
2721;DHT22;1368;49.484;11.112;2023-02-21T17:26:56;13.50;99.90
2721;DHT22;1368;49.484;11.112;2023-02-21T17:29:21;13.70;99.90
2721;DHT22;1368;49.484;11.112;2023-02-21T17:31:52;13.40;99.90
2721;DHT22;1368;49.484;11.112;2023-02-21T17:34:18;13.30;99.90
2721;DHT22;1368;49.484;11.112;2023-02-21T17:36:48;13.30;99.90
2721;DHT22;1368;49.484;11.112;2023-02-21T17:39:16;13.30;99.90
2721;DHT22;1368;49.484;11.112;2023-02-21T17:41:49;13.10;99.90
2721;DHT22;1368;49.484;11.112;2023-02-21T17:44:15;12.90;99.90
2721;DHT22;1368;49.484;11.112;2023-02-21T17:46:46;12.90;99.90
2721;DHT22;1368;49.484;11.112;2023-02-21T17:49:14;12.80;99.90
2721;DHT22;1368;49.484;11.112;2023-02-21T17:51:40;12.80;99.90
2721;DHT22;1368;49.484;11.112;2023-02-21T17:54:05;12.70;99.90
2721;DHT22;1368;49.484;11.112;2023-02-21T17:56:31;12.60;99.90
2721;DHT22;1368;49.484;11.112;2023-02-21T17:58:57;12.50;99.90
2721;DHT22;1368;49.484;11.112;2023-02-21T18:01:23;12.50;99.90
2721;DHT22;1368;49.484;11.112;2023-02-21T18:03:49;12.40;99.90
2721;DHT22;1368;49.484;11.112;2023-02-21T18:06:16;12.30;99.90
2721;DHT22;1368;49.484;11.112;2023-02-21T18:08:42;12.20;99.90
2721;DHT22;1368;49.484;11.112;2023-02-21T18:11:12;12.10;99.90
2721;DHT22;1368;49.484;11.112;2023-02-21T18:13:38;12.10;99.90
2721;DHT22;1368;49.484;11.112;2023-02-21T18:16:03;12.10;99.90
2721;DHT22;1368;49.484;11.112;2023-02-21T18:18:30;12.00;99.90
2721;DHT22;1368;49.484;11.112;2023-02-21T18:20:55;12.30;99.90
2721;DHT22;1368;49.484;11.112;2023-02-21T18:23:24;11.80;99.90
2721;DHT22;1368;49.484;11.112;2023-02-21T18:25:50;11.70;99.90
2721;DHT22;1368;49.484;11.112;2023-02-21T18:28:15;11.70;99.90
2721;DHT22;1368;49.484;11.112;2023-02-21T18:30:41;11.60;99.90
2721;DHT22;1368;49.484;11.112;2023-02-21T18:33:06;11.50;99.90
2721;DHT22;1368;49.484;11.112;2023-02-21T18:35:32;11.40;99.90
2721;DHT22;1368;49.484;11.112;2023-02-21T18:37:57;11.30;99.90
2721;DHT22;1368;49.484;11.112;2023-02-21T18:40:23;11.30;99.90
2721;DHT22;1368;49.484;11.112;2023-02-21T18:42:59;11.30;99.90
2721;DHT22;1368;49.484;11.112;2023-02-21T18:45:25;11.20;99.90
2721;DHT22;1368;49.484;11.112;2023-02-21T18:47:51;11.20;99.90
2721;DHT22;1368;49.484;11.112;2023-02-21T18:50:17;11.10;99.90
2721;DHT22;1368;49.484;11.112;2023-02-21T18:52:43;11.00;99.90
2721;DHT22;1368;49.484;11.112;2023-02-21T18:55:08;11.00;99.90
2721;DHT22;1368;49.484;11.112;2023-02-21T18:57:37;10.90;99.90
2721;DHT22;1368;49.484;11.112;2023-02-21T19:00:05;10.90;99.90
2721;DHT22;1368;49.484;11.112;2023-02-21T19:02:32;10.80;99.90
2721;DHT22;1368;49.484;11.112;2023-02-21T19:04:58;10.80;99.90
2721;DHT22;1368;49.484;11.112;2023-02-21T19:07:24;10.60;99.90
2721;DHT22;1368;49.484;11.112;2023-02-21T19:09:50;10.10;99.90
2721;DHT22;1368;49.484;11.112;2023-02-21T19:12:16;10.10;99.90
2721;DHT22;1368;49.484;11.112;2023-02-21T19:14:41;10.10;99.90
2721;DHT22;1368;49.484;11.112;2023-02-21T19:17:07;10.20;99.90